Time;durP1;ratioP1;P1;durP2;ratioP2;P2;SDS_P1;SDS_P2;PMS_P1;PMS_P2;Temp;Humidity;BMP_temperature;BMP_pressure;BME280_temperature;BME280_humidity;BME280_pressure;Samples;Min_cycle;Max_cycle;Signal;HPM_P1;HPM_P2
2022/05/29 00:01:25;;;;;;;3.35;1.77;;;;;;;12.70;44.25;98796.03;2623779;39;20433;-66
2022/05/29 00:03:57;;;;;;;6.90;1.98;;;;;;;12.64;44.70;98780.94;2623435;54;20026;-66
2022/05/29 00:06:27;;;;;;;8.82;2.10;;;;;;;12.67;44.74;98785.00;2623583;54;20049;-66
2022/05/29 00:08:56;;;;;;;6.70;1.80;;;;;;;12.75;44.38;98782.97;2623540;54;20105;-68
2022/05/29 00:11:26;;;;;;;9.00;2.40;;;;;;;12.85;44.46;98777.22;2624249;54;20037;-66
2022/05/29 00:14:00;;;;;;;4.95;2.25;;;;;;;12.92;44.39;98771.91;2625025;54;20030;-66
2022/05/29 00:16:29;;;;;;;;;;;;;;;12.92;44.12;98771.91;2625965;39;20392;-66
2022/05/29 00:19:02;;;;;;;6.15;1.80;;;;;;;12.95;44.13;98763.53;2624358;54;19946;-67
2022/05/29 00:21:34;;;;;;;8.68;2.08;;;;;;;12.71;44.15;98767.66;2624483;54;20045;-66
2022/05/29 00:24:04;;;;;;;8.20;2.00;;;;;;;12.77;44.40;98766.81;2624396;54;20045;-68
2022/05/29 00:26:34;;;;;;;5.43;1.63;;;;;;;12.82;44.21;98754.59;2624393;54;20034;-67
2022/05/29 00:29:04;;;;;;;6.38;1.90;;;;;;;12.77;44.40;98756.22;2623570;54;20038;-66
2022/05/29 00:31:33;;;;;;;8.75;2.20;;;;;;;12.78;44.71;98760.53;2624044;54;20574;-67
2022/05/29 00:34:06;;;;;;;5.55;1.80;;;;;;;12.74;44.53;98762.78;2623948;54;20083;-67
2022/05/29 00:36:37;;;;;;;5.03;2.47;;;;;;;12.75;44.42;98759.09;2624630;54;20038;-67
2022/05/29 00:39:08;;;;;;;6.35;2.22;;;;;;;12.66;44.56;98757.69;2624450;54;20030;-68
2022/05/29 00:41:40;;;;;;;6.40;2.05;;;;;;;12.50;44.65;98753.63;2624447;54;20123;-65
2022/05/29 00:44:16;;;;;;;7.25;2.47;;;;;;;12.62;44.95;98751.16;2626111;54;20337;-69
2022/05/29 00:46:48;;;;;;;6.60;1.88;;;;;;;12.58;44.91;98747.28;2623240;54;20569;-66
2022/05/29 00:49:24;;;;;;;3.90;1.83;;;;;;;12.65;44.81;98745.41;2622575;54;20038;-65
2022/05/29 00:51:57;;;;;;;7.20;2.10;;;;;;;12.67;44.98;98740.75;2623915;54;20038;-67
2022/05/29 00:54:27;;;;;;;4.53;1.65;;;;;;;12.66;44.61;98730.34;2624125;54;20038;-67
2022/05/29 00:56:57;;;;;;;5.70;2.22;;;;;;;12.34;45.04;98738.16;2624477;54;20038;-69
2022/05/29 00:59:30;;;;;;;7.13;2.05;;;;;;;12.30;45.44;98728.97;2624135;54;20038;-67
2022/05/29 01:02:04;;;;;;;5.00;1.92;;;;;;;12.27;45.48;98735.50;2624593;54;20500;-66
2022/05/29 01:04:39;;;;;;;8.93;2.45;;;;;;;12.26;45.78;98725.09;2623557;54;20025;-66
2022/05/29 01:07:13;;;;;;;5.80;1.88;;;;;;;12.23;45.27;98722.84;2623858;54;20046;-66
2022/05/29 01:09:45;;;;;;;7.45;2.10;;;;;;;12.18;45.60;98715.53;2623243;54;20038;-68
2022/05/29 01:12:28;;;;;;;6.00;1.92;;;;;;;12.14;45.63;98722.25;2622676;47;20031;-66
2022/05/29 01:15:04;;;;;;;7.18;2.15;;;;;;;12.07;45.82;98732.84;2623130;54;20038;-66
2022/05/29 01:17:41;;;;;;;5.22;1.73;;;;;;;11.86;46.49;98731.19;2622983;54;20538;-66
2022/05/29 01:20:40;;;;;;;7.88;1.58;;;;;;;11.89;46.96;98730.81;2623370;54;20030;-66
2022/05/29 01:23:31;;;;;;;6.85;2.00;;;;;;;12.03;46.49;98730.81;2622539;54;20030;-66
2022/05/29 01:26:25;;;;;;;8.00;2.17;;;;;;;12.02;46.63;98735.28;2621788;54;20031;-65
2022/05/29 01:29:00;;;;;;;7.65;2.13;;;;;;;11.98;46.72;98731.41;2622884;54;20026;-66
2022/05/29 01:31:39;;;;;;;4.15;1.90;;;;;;;12.03;46.71;98730.81;2623151;54;20030;-66
2022/05/29 01:34:30;;;;;;;5.00;1.95;;;;;;;12.00;46.47;98725.91;2624145;54;20038;-66
2022/05/29 01:37:11;;;;;;;5.75;1.90;;;;;;;12.01;46.72;98719.59;2623553;54;20039;-66
2022/05/29 01:39:51;;;;;;;4.93;1.65;;;;;;;12.02;46.40;98716.75;2623161;54;20030;-67
2022/05/29 01:42:28;;;;;;;6.03;1.45;;;;;;;11.75;47.04;98725.66;2621202;54;20041;-66
2022/05/29 01:45:04;;;;;;;6.15;1.90;;;;;;;11.73;47.30;98717.91;2622098;39;20730;-66
2022/05/29 01:47:40;;;;;;;4.60;2.20;;;;;;;11.85;47.37;98715.53;2620505;54;20061;-65
2022/05/29 01:50:14;;;;;;;9.15;2.05;;;;;;;11.99;47.49;98719.78;2620047;46;20050;-65
2022/05/29 01:52:49;;;;;;;7.03;1.77;;;;;;;12.07;46.83;98721.44;2620597;54;20577;-65
2022/05/29 01:55:23;;;;;;;5.20;1.63;;;;;;;12.01;46.81;98711.66;2620062;39;20423;-64
2022/05/29 01:57:58;;;;;;;5.82;1.70;;;;;;;12.06;46.78;98715.31;2622542;39;20404;-66
2022/05/29 02:00:30;;;;;;;6.35;2.00;;;;;;;12.00;47.08;98717.97;2621971;54;20129;-64
2022/05/29 06:40:31;;;;;;;3.03;1.60;;;;;;;12.70;48.97;98641.41;2598904;54;20045;-68
2022/05/29 06:43:01;;;;;;;5.25;2.00;;;;;;;12.51;49.37;98648.38;2621446;54;20043;-66
2022/05/29 06:45:31;;;;;;;4.28;1.45;;;;;;;12.18;49.57;98649.28;2621720;54;20019;-65
2022/05/29 06:48:00;;;;;;;5.82;2.35;;;;;;;12.15;49.98;98647.03;2619651;54;20580;-68
2022/05/29 06:50:30;;;;;;;6.60;1.90;;;;;;;12.37;49.54;98637.81;2618163;54;20037;-67
2022/05/29 06:52:59;;;;;;;5.88;2.08;;;;;;;12.42;49.67;98647.78;2619478;54;20070;-66
2022/05/29 06:55:32;;;;;;;3.53;1.85;;;;;;;12.51;49.04;98656.34;2620305;54;20082;-66
2022/05/29 06:58:01;;;;;;;6.90;2.45;;;;;;;12.07;49.13;98650.69;2621576;54;20026;-66
2022/05/29 07:08:39;;;;;;;7.13;1.83;;;;;;;12.45;48.91;98658.00;2620003;54;20059;-65
2022/05/29 07:11:15;;;;;;;5.80;1.77;;;;;;;12.36;48.73;98652.06;2620199;47;20044;-66
2022/05/29 07:13:45;;;;;;;6.03;2.08;;;;;;;12.57;49.32;98651.03;2620814;54;20577;-64
2022/05/29 07:16:15;;;;;;;6.07;1.67;;;;;;;12.75;48.17;98650.34;2618959;54;20038;-65
2022/05/29 07:18:48;;;;;;;6.93;2.47;;;;;;;12.72;48.40;98661.34;2618569;39;20449;-67
2022/05/29 07:21:24;;;;;;;5.85;2.28;;;;;;;12.88;48.29;98658.22;2620706;54;20031;-63
2022/05/29 07:23:54;;;;;;;6.47;2.00;;;;;;;13.06;48.11;98659.38;2622882;54;20061;-63
2022/05/29 07:26:26;;;;;;;3.05;1.52;;;;;;;13.15;47.65;98660.78;2620189;54;20038;-65
2022/05/29 07:28:55;;;;;;;8.57;2.22;;;;;;;13.44;46.72;98662.06;2619132;54;20038;-65
2022/05/29 07:31:25;;;;;;;5.63;1.98;;;;;;;13.59;46.55;98661.72;2618777;54;20027;-64
2022/05/29 07:33:55;;;;;;;8.18;2.70;;;;;;;13.66;46.34;98651.88;2619284;54;20026;-65
2022/05/29 07:36:26;;;;;;;6.57;2.38;;;;;;;13.60;46.15;98653.56;2619172;54;20027;-65
2022/05/29 07:38:55;;;;;;;8.27;1.80;;;;;;;13.14;46.30;98659.13;2619086;54;20034;-67
2022/05/29 07:44:10;;;;;;;6.22;1.67;;;;;;;12.98;47.25;98651.66;2618818;54;20543;-66
2022/05/29 07:46:40;;;;;;;5.20;1.88;;;;;;;13.29;47.49;98658.88;2618764;54;20134;-66
2022/05/29 07:49:09;;;;;;;5.40;2.03;;;;;;;13.60;46.90;98653.56;2618964;54;20070;-64
2022/05/29 07:51:44;;;;;;;6.88;2.40;;;;;;;13.82;46.29;98651.34;2618911;54;20047;-66
2022/05/29 07:54:13;;;;;;;9.57;3.22;;;;;;;14.16;46.26;98662.50;2618612;54;20029;-64
2022/05/29 07:56:46;;;;;;;5.75;1.85;;;;;;;14.23;45.08;98657.13;2618617;54;20035;-63
2022/05/29 07:59:17;;;;;;;12.23;3.55;;;;;;;14.25;45.30;98655.88;2618702;54;20035;-64
2022/05/29 08:01:47;;;;;;;5.07;1.70;;;;;;;14.02;44.91;98656.50;2618638;50;20057;-64
2022/05/29 08:04:17;;;;;;;5.47;1.75;;;;;;;14.10;44.64;98653.56;2618637;54;20172;-64
2022/05/29 08:06:47;;;;;;;3.67;1.60;;;;;;;14.15;44.91;98660.06;2618338;54;20089;-64
2022/05/29 08:09:18;;;;;;;6.65;1.83;;;;;;;14.06;44.29;98663.00;2618649;54;20042;-66
2022/05/29 08:11:51;;;;;;;4.43;1.90;;;;;;;14.04;44.47;98662.44;2618872;54;20106;-65
2022/05/29 08:14:20;;;;;;;8.02;2.65;;;;;;;14.13;44.59;98662.94;2618454;47;20034;-65
2022/05/29 08:16:50;;;;;;;7.47;1.90;;;;;;;14.19;43.96;98667.38;2618771;54;20078;-65
2022/05/29 08:19:19;;;;;;;8.18;2.22;;;;;;;14.01;44.38;98657.53;2618708;54;20034;-65
2022/05/29 08:21:49;;;;;;;9.60;2.63;;;;;;;14.01;45.26;98656.72;2618930;39;20482;-65
2022/05/29 08:33:16;;;;;;;9.35;2.80;;;;;;;13.86;44.75;98660.50;2617293;54;20061;-65
2022/05/29 08:35:47;;;;;;;10.20;2.58;;;;;;;13.84;44.53;98653.81;2618320;54;20046;-65
2022/05/29 08:38:19;;;;;;;5.40;2.30;;;;;;;14.09;44.74;98653.78;2618964;39;20701;-67
2022/05/29 08:40:52;;;;;;;5.90;1.95;;;;;;;14.38;43.73;98660.25;2618394;54;20533;-65
2022/05/29 08:43:29;;;;;;;5.55;1.77;;;;;;;14.34;43.15;98657.22;2618585;54;20026;-64
2022/05/29 08:46:01;;;;;;;9.95;2.95;;;;;;;14.17;43.15;98656.16;2618672;54;20022;-66
2022/05/29 08:48:32;;;;;;;5.93;2.13;;;;;;;13.95;43.54;98652.25;2618573;54;20546;-65
2022/05/29 08:51:19;;;;;;;5.22;1.85;;;;;;;14.09;43.68;98656.44;2618524;54;20046;-65
2022/05/29 08:53:56;;;;;;;5.55;1.90;;;;;;;14.13;44.11;98645.16;2618657;54;20026;-64
2022/05/29 08:56:32;;;;;;;8.05;1.80;;;;;;;14.47;43.04;98650.13;2617961;54;20046;-64
2022/05/29 08:59:15;;;;;;;4.07;1.40;;;;;;;14.48;43.66;98641.13;2618821;54;20064;-63
2022/05/29 09:01:59;;;;;;;5.85;1.80;;;;;;;14.88;42.32;98643.34;2618767;54;20082;-65
2022/05/29 09:04:35;;;;;;;7.68;2.58;;;;;;;15.35;41.98;98637.16;2618743;54;20543;-64
2022/05/29 09:07:08;;;;;;;7.75;1.67;;;;;;;15.40;40.65;98630.34;2618794;54;20034;-64
2022/05/29 09:09:43;;;;;;;6.75;2.03;;;;;;;15.26;41.47;98632.38;2619022;54;20094;-63
2022/05/29 09:12:18;;;;;;;5.00;1.73;;;;;;;15.21;41.22;98632.25;2619201;54;20156;-64
2022/05/29 09:14:53;;;;;;;8.98;3.90;;;;;;;15.09;41.12;98630.34;2619171;54;20027;-64
2022/05/29 09:17:29;;;;;;;5.22;1.55;;;;;;;14.91;41.22;98629.59;2618610;54;20038;-65
2022/05/29 09:20:03;;;;;;;8.23;3.13;;;;;;;14.71;41.42;98629.84;2618043;47;20071;-66
2022/05/29 09:22:37;;;;;;;38.70;23.65;;;;;;;14.66;41.42;98632.38;2618776;54;20037;-65
2022/05/29 09:25:08;;;;;;;;;;;;;;;14.53;41.21;98641.28;2618082;47;20038;-64
2022/05/29 09:27:41;;;;;;;5.40;1.80;;;;;;;14.42;41.71;98636.69;2618483;54;19946;-64
2022/05/29 09:30:14;;;;;;;5.60;1.70;;;;;;;14.53;41.11;98638.63;2618310;54;20031;-62
2022/05/29 09:32:50;;;;;;;4.40;1.70;;;;;;;14.50;41.11;98631.91;2618543;54;20027;-63
2022/05/29 09:35:26;;;;;;;3.92;1.55;;;;;;;14.77;40.45;98629.75;2618744;54;20295;-63
2022/05/29 09:38:02;;;;;;;4.15;1.48;;;;;;;14.94;40.64;98639.78;2618791;54;20030;-65
2022/05/29 09:40:36;;;;;;;4.28;1.33;;;;;;;15.00;40.28;98629.03;2618382;47;20033;-63
2022/05/29 09:43:16;;;;;;;4.47;1.83;;;;;;;14.93;39.47;98630.97;2619064;39;20412;-64
2022/05/29 09:45:49;;;;;;;4.53;1.88;;;;;;;14.94;39.74;98629.13;2618000;47;20026;-65
2022/05/29 09:51:15;;;;;;;;;;;;;;;15.76;39.66;98616.88;2618989;54;20030;-64
2022/05/29 09:53:50;;;;;;;7.85;2.20;;;;;;;16.10;38.67;98607.28;2618461;54;19946;-65
2022/05/29 09:56:28;;;;;;;5.90;1.70;;;;;;;16.04;38.29;98605.53;2618095;49;20064;-65
2022/05/29 09:59:02;;;;;;;3.40;1.33;;;;;;;15.98;37.84;98611.78;2618819;31;20539;-64
2022/05/29 10:01:40;;;;;;;3.95;1.75;;;;;;;15.78;37.76;98614.78;2618642;54;20034;-64
2022/05/29 10:04:15;;;;;;;3.60;1.50;;;;;;;15.72;38.08;98615.72;2619962;54;20550;-65
2022/05/29 10:06:47;;;;;;;6.38;2.00;;;;;;;15.53;38.42;98609.63;2621805;54;20057;-66
2022/05/29 10:09:19;;;;;;;3.13;1.20;;;;;;;14.91;38.12;98614.44;2618510;54;20073;-63
2022/05/29 10:11:50;;;;;;;4.78;1.58;;;;;;;14.81;39.17;98616.81;2618370;54;20026;-64
2022/05/29 10:14:27;;;;;;;4.05;1.95;;;;;;;14.90;39.44;98614.63;2618541;54;20058;-65
2022/05/29 10:16:59;;;;;;;3.17;1.60;;;;;;;15.07;38.88;98621.78;2618745;54;20122;-65
2022/05/29 10:19:38;;;;;;;5.90;1.30;;;;;;;15.27;37.88;98620.72;2618899;54;20034;-65
2022/05/29 10:22:15;;;;;;;4.18;1.90;;;;;;;15.51;37.43;98613.56;2619218;54;20039;-64
2022/05/29 10:24:45;;;;;;;2.95;1.40;;;;;;;15.75;36.00;98604.59;2618970;54;20585;-64
2022/05/29 10:27:29;;;;;;;4.25;1.83;;;;;;;15.97;35.45;98594.19;2619193;54;20042;-64
2022/05/29 10:30:00;;;;;;;;;;;;;;;16.24;35.66;98594.50;2619698;54;20038;-65
2022/05/29 10:32:35;;;;;;;3.42;1.23;;;;;;;16.67;35.07;98582.56;2618335;54;19950;-64
2022/05/29 10:35:18;;;;;;;3.67;1.52;;;;;;;17.09;34.99;98576.97;2619591;54;20616;-65
2022/05/29 10:37:51;;;;;;;3.72;1.70;;;;;;;17.30;33.59;98572.78;2618961;54;20110;-65
2022/05/29 10:40:25;;;;;;;2.63;1.30;;;;;;;17.19;33.00;98568.34;2619606;54;20562;-64
2022/05/29 10:42:59;;;;;;;6.72;2.45;;;;;;;17.16;33.30;98574.16;2620167;39;20469;-63
2022/05/29 10:45:31;;;;;;;3.83;1.70;;;;;;;17.12;33.81;98565.00;2620020;54;20039;-63
2022/05/29 10:48:26;;;;;;;4.40;1.20;;;;;;;16.89;33.43;98565.91;2619465;54;20046;-63
2022/05/29 10:51:06;;;;;;;3.70;1.58;;;;;;;17.07;33.91;98571.06;2620112;54;20081;-63
2022/05/29 10:53:59;;;;;;;2.70;1.55;;;;;;;17.19;32.54;98563.81;2619868;54;20026;-64
2022/05/29 10:56:37;;;;;;;5.07;1.80;;;;;;;17.18;31.63;98556.00;2620197;39;20425;-62
2022/05/29 10:59:32;;;;;;;2.92;1.95;;;;;;;17.27;31.65;98560.72;2620365;54;20035;-63
2022/05/29 11:05:16;;;;;;;4.60;1.40;;;;;;;16.76;32.78;98556.34;2622333;39;20443;-63
2022/05/29 11:08:15;;;;;;;3.95;1.63;;;;;;;16.36;33.51;98541.13;2623484;54;20122;-64
2022/05/29 11:11:00;;;;;;;3.95;1.40;;;;;;;16.27;33.48;98562.03;2624284;54;20035;-63
2022/05/29 11:13:52;;;;;;;3.72;1.58;;;;;;;16.58;33.68;98554.66;2623527;54;20034;-65
2022/05/29 11:16:33;;;;;;;5.05;1.48;;;;;;;16.76;33.86;98556.34;2623739;54;20058;-65
2022/05/29 11:19:23;;;;;;;3.53;1.60;;;;;;;16.55;33.62;98553.25;2624036;54;20091;-64
2022/05/29 11:22:08;;;;;;;3.75;1.58;;;;;;;16.48;33.25;98543.75;2620105;54;20051;-64
2022/05/29 11:25:06;;;;;;;1.90;1.10;;;;;;;16.31;32.03;98533.03;2619700;54;20081;-65
2022/05/29 11:27:55;;;;;;;7.75;5.05;;;;;;;16.69;31.27;98531.63;2618552;54;20030;-65
2022/05/29 11:30:28;;;;;;;5.68;3.50;;;;;;;16.80;31.54;98530.78;2619137;54;20038;-66
2022/05/29 11:33:23;;;;;;;9.45;5.38;;;;;;;17.15;31.26;98519.13;2618954;54;20126;-65
2022/05/29 11:36:05;;;;;;;5.22;3.28;;;;;;;17.32;30.67;98511.91;2619027;54;20121;-66
2022/05/29 11:39:03;;;;;;;6.28;3.40;;;;;;;17.46;30.83;98515.88;2619052;39;20446;-64
2022/05/29 11:41:40;;;;;;;2.65;1.35;;;;;;;16.96;31.56;98518.53;2618328;47;20030;-66
2022/05/29 11:44:19;;;;;;;5.10;1.42;;;;;;;16.72;31.58;98509.78;2619035;54;20027;-65
2022/05/29 11:52:33;;;;;;;3.45;1.80;;;;;;;15.67;31.82;98516.19;2625234;54;20038;-66
2022/05/29 11:55:11;;;;;;;3.03;2.25;;;;;;;15.72;31.28;98513.66;2625011;54;20133;-66
2022/05/29 11:57:47;;;;;;;2.53;1.77;;;;;;;15.88;31.53;98512.94;2624734;54;20026;-64
2022/05/29 12:00:29;;;;;;;3.90;2.13;;;;;;;15.89;30.60;98506.56;2619120;54;20038;-64
2022/05/29 12:03:07;;;;;;;2.50;1.70;;;;;;;15.78;29.90;98505.53;2618877;54;20030;-64
2022/05/29 12:05:43;;;;;;;5.15;1.98;;;;;;;15.95;30.34;98494.94;2619071;54;20039;-64
2022/05/29 12:08:18;;;;;;;4.03;2.45;;;;;;;16.46;29.63;98481.84;2618656;54;20142;-64
2022/05/29 12:11:00;;;;;;;4.43;2.33;;;;;;;17.09;29.28;98486.16;2619121;54;20050;-64
2022/05/29 12:13:36;;;;;;;4.75;1.58;;;;;;;17.49;27.20;98485.19;2619051;54;20030;-64
2022/05/29 12:16:10;;;;;;;4.75;2.55;;;;;;;17.58;26.75;98473.81;2619449;54;20074;-65
2022/05/29 12:18:46;;;;;;;4.00;1.80;;;;;;;17.92;26.37;98486.31;2620009;39;20526;-64
2022/05/29 12:21:30;;;;;;;3.83;3.28;;;;;;;18.13;26.21;98479.41;2622306;54;20054;-64
2022/05/29 12:24:02;;;;;;;2.85;2.00;;;;;;;18.27;26.23;98468.03;2622049;54;20031;-64
2022/05/29 12:26:41;;;;;;;4.03;1.90;;;;;;;18.35;25.88;98468.66;2622791;54;20041;-65
2022/05/29 12:29:16;;;;;;;2.15;1.80;;;;;;;18.61;25.41;98467.84;2622896;54;20323;-64
2022/05/29 12:31:49;;;;;;;6.00;4.97;;;;;;;18.46;26.16;98462.38;2622932;39;20423;-65
2022/05/29 12:34:25;;;;;;;7.30;5.68;;;;;;;18.40;25.73;98461.50;2621794;54;20038;-64
2022/05/29 12:37:30;;;;;;;2.38;2.17;;;;;;;17.86;25.78;98461.41;2621930;54;20042;-65
2022/05/29 12:40:18;;;;;;;2.05;1.70;;;;;;;17.30;26.26;98460.56;2621819;54;20127;-63
2022/05/29 12:43:19;;;;;;;3.10;2.50;;;;;;;17.11;26.86;98464.56;2621067;54;20030;-66
2022/05/29 12:45:57;;;;;;;3.60;2.80;;;;;;;17.02;28.11;98462.31;2620495;54;20061;-65
2022/05/29 12:48:48;;;;;;;3.55;2.28;;;;;;;16.81;28.43;98469.13;2620733;54;20031;-65
2022/05/29 12:51:40;;;;;;;2.60;1.92;;;;;;;16.62;28.94;98466.91;2621122;54;20127;-65
2022/05/29 12:54:31;;;;;;;5.60;2.70;;;;;;;17.13;28.50;98463.25;2620210;54;20026;-64
2022/05/29 12:57:32;;;;;;;3.35;2.08;;;;;;;17.13;27.86;98457.91;2620296;39;20399;-65
2022/05/29 13:00:22;;;;;;;9.85;3.55;;;;;;;17.40;27.78;98460.75;2620992;54;20034;-64
2022/05/29 13:03:28;;;;;;;2.42;2.20;;;;;;;17.57;27.67;98458.03;2619507;54;20042;-66
2022/05/29 13:06:15;;;;;;;6.25;3.53;;;;;;;17.85;26.99;98445.63;2618891;54;20034;-64
2022/05/29 13:09:06;;;;;;;4.57;3.03;;;;;;;17.82;26.08;98442.38;2619073;54;20078;-65
2022/05/29 13:11:39;;;;;;;4.57;3.15;;;;;;;17.65;26.31;98446.13;2618635;54;20169;-65
2022/05/29 13:14:11;;;;;;;3.15;2.05;;;;;;;17.91;26.23;98444.59;2619440;39;20506;-66
2022/05/29 13:16:46;;;;;;;2.00;1.83;;;;;;;18.13;25.44;98444.63;2619109;54;20030;-64
2022/05/29 13:19:17;;;;;;;3.00;2.10;;;;;;;18.44;24.91;98438.50;2619488;54;20031;-65
2022/05/29 13:22:02;;;;;;;2.47;2.28;;;;;;;18.89;24.89;98433.88;2621655;54;20026;-65
2022/05/29 13:24:36;;;;;;;2.67;2.13;;;;;;;18.94;24.64;98436.59;2623080;54;20069;-66
2022/05/29 13:27:30;;;;;;;3.30;2.10;;;;;;;18.45;25.65;98429.44;2623035;54;20546;-64
2022/05/29 13:30:01;;;;;;;6.28;2.70;;;;;;;18.06;26.00;98442.13;2623927;39;20431;-66
2022/05/29 13:32:39;;;;;;;1.60;1.50;;;;;;;17.67;26.35;98441.31;2623403;54;20031;-66
2022/05/29 13:35:37;;;;;;;3.03;2.53;;;;;;;17.51;27.00;98437.63;2620808;47;20594;-66
2022/05/29 13:38:07;;;;;;;2.95;2.30;;;;;;;17.39;26.72;98440.44;2618443;54;20059;-66
2022/05/29 13:40:45;;;;;;;2.30;2.10;;;;;;;17.33;26.53;98436.06;2618701;54;20034;-66
2022/05/29 13:43:37;;;;;;;2.17;1.85;;;;;;;17.69;25.93;98432.00;2618414;54;20037;-66
2022/05/29 13:46:18;;;;;;;162.25;116.82;;;;;;;18.16;25.40;98436.88;2618540;54;20030;-65
2022/05/29 13:49:08;;;;;;;4.07;2.00;;;;;;;18.63;24.69;98427.47;2618665;54;20030;-64
2022/05/29 13:51:44;;;;;;;2.30;1.42;;;;;;;18.98;24.16;98424.28;2617765;54;20027;-66
2022/05/29 13:54:25;;;;;;;3.10;1.65;;;;;;;19.52;24.31;98427.63;2618195;54;20027;-66
2022/05/29 13:57:03;;;;;;;2.83;2.28;;;;;;;19.72;24.14;98418.13;2618832;54;20065;-65
2022/05/29 14:05:29;;;;;;;2.75;1.33;;;;;;;19.36;23.90;98414.41;2618677;54;20037;-66
2022/05/29 14:08:25;;;;;;;3.30;2.22;;;;;;;18.94;24.34;98420.50;2619152;31;20492;-66
2022/05/29 14:11:07;;;;;;;1.83;1.63;;;;;;;19.31;24.38;98415.19;2618774;54;20030;-66
2022/05/29 14:13:39;;;;;;;2.83;1.35;;;;;;;19.61;24.36;98405.69;2618018;54;20046;-66
2022/05/29 14:16:20;;;;;;;2.75;2.00;;;;;;;19.88;24.39;98409.06;2619971;54;20127;-66
2022/05/29 14:18:58;;;;;;;2.22;1.50;;;;;;;19.81;23.69;98410.38;2618458;54;20061;-65
2022/05/29 14:21:55;;;;;;;3.45;1.35;;;;;;;19.86;22.65;98402.34;2620029;54;20085;-65
2022/05/29 14:24:51;;;;;;;4.32;3.70;;;;;;;19.60;21.70;98394.16;2621053;54;20027;-66
2022/05/29 14:28:02;;;;;;;3.55;1.88;;;;;;;19.84;22.26;98401.78;2620796;54;20133;-65
2022/05/29 14:30:44;;;;;;;1.75;1.30;;;;;;;19.71;22.44;98398.50;2621407;54;20070;-66
2022/05/29 14:33:34;;;;;;;4.93;1.83;;;;;;;19.91;21.91;98397.78;2620751;54;20078;-65
2022/05/29 14:36:17;;;;;;;2.70;1.85;;;;;;;19.59;21.92;98394.41;2621310;54;20536;-66
2022/05/29 14:39:12;;;;;;;2.53;1.00;;;;;;;19.48;22.73;98397.03;2621157;54;20034;-66
2022/05/29 14:41:46;;;;;;;4.28;2.53;;;;;;;19.76;22.55;98387.81;2622570;54;20031;-66
2022/05/29 14:44:30;;;;;;;1.55;1.00;;;;;;;19.98;22.43;98394.88;2620629;54;20018;-65
2022/05/29 14:47:06;;;;;;;3.65;1.30;;;;;;;20.33;22.60;98387.97;2624289;54;20582;-65
2022/05/29 14:49:48;;;;;;;5.93;1.55;;;;;;;20.16;22.94;98388.19;2624098;54;20026;-67
2022/05/29 14:52:22;;;;;;;2.42;1.40;;;;;;;19.98;23.15;98387.63;2622916;54;20026;-66
2022/05/29 14:54:59;;;;;;;3.28;1.95;;;;;;;19.82;22.87;98380.59;2622788;54;20034;-66
2022/05/29 14:57:31;;;;;;;4.65;2.20;;;;;;;19.68;22.84;98382.97;2622771;54;20039;-65
2022/05/29 15:00:01;;;;;;;3.92;2.05;;;;;;;19.23;23.47;98381.63;2623141;54;20045;-66
2022/05/29 15:02:36;;;;;;;14.60;10.98;;;;;;;18.93;23.59;98387.56;2621330;50;20027;-67
2022/05/29 15:05:09;;;;;;;5.50;3.22;;;;;;;19.13;23.86;98380.75;2620639;54;20050;-66
2022/05/29 15:10:34;;;;;;;1.65;1.48;;;;;;;19.61;23.59;98363.63;2619026;54;19947;-67
2022/05/29 15:13:07;;;;;;;1.48;1.30;;;;;;;19.71;23.04;98377.06;2618750;54;20034;-66
2022/05/29 15:15:46;;;;;;;2.70;1.27;;;;;;;19.88;23.47;98368.81;2619073;54;20042;-66
2022/05/29 15:18:19;;;;;;;3.60;1.20;;;;;;;19.61;23.45;98362.78;2618229;47;20034;-65
2022/05/29 15:26:20;;;;;;;2.50;1.50;;;;;;;18.96;25.14;98364.84;2621499;54;20027;-66
2022/05/29 15:28:52;;;;;;;1.88;1.50;;;;;;;18.99;25.39;98359.78;2619722;54;20050;-66
2022/05/29 15:31:32;;;;;;;2.42;1.88;;;;;;;19.07;25.01;98365.72;2620345;54;20126;-66
2022/05/29 15:34:28;;;;;;;5.35;4.18;;;;;;;19.19;25.66;98355.63;2618563;54;20039;-65
2022/05/29 15:37:12;;;;;;;2.22;1.40;;;;;;;18.97;24.27;98353.06;2619654;54;20078;-66
2022/05/29 15:39:49;;;;;;;3.08;1.67;;;;;;;18.89;25.34;98348.16;2619129;54;20038;-66
2022/05/29 15:42:25;;;;;;;3.28;1.42;;;;;;;19.17;24.63;98347.81;2619293;54;20026;-66
2022/05/29 15:45:11;;;;;;;1.63;1.30;;;;;;;18.82;25.34;98348.41;2618738;54;20549;-65
2022/05/29 15:48:07;;;;;;;2.05;1.05;;;;;;;18.80;25.30;98347.84;2618650;54;20077;-66
2022/05/29 15:50:52;;;;;;;2.50;1.40;;;;;;;18.98;24.81;98339.41;2618751;54;20146;-66
2022/05/29 15:53:43;;;;;;;2.08;1.10;;;;;;;18.88;25.03;98343.88;2618957;54;20030;-65
2022/05/29 15:56:16;;;;;;;5.18;1.73;;;;;;;19.02;24.67;98339.69;2618995;54;20069;-66
2022/05/29 15:58:59;;;;;;;;;;;;;;;19.18;24.05;98346.75;2618929;54;20038;-65
2022/05/29 16:01:29;;;;;;;1.77;1.38;;;;;;;19.04;24.51;98342.91;2618833;54;20018;-65
2022/05/29 16:03:59;;;;;;;1.95;1.30;;;;;;;19.09;24.40;98347.50;2618690;54;20037;-65
2022/05/29 16:06:44;;;;;;;1.80;1.30;;;;;;;18.77;24.83;98341.13;2618722;54;20034;-66
2022/05/29 16:09:16;;;;;;;3.58;1.65;;;;;;;18.73;24.91;98349.94;2618746;54;20027;-65
2022/05/29 16:11:54;;;;;;;1.30;1.10;;;;;;;18.66;24.89;98342.09;2618779;54;20037;-65
2022/05/29 16:14:50;;;;;;;3.75;1.40;;;;;;;18.92;24.45;98337.75;2619005;54;20054;-65
2022/05/29 16:17:48;;;;;;;1.58;0.95;;;;;;;18.86;24.58;98341.47;2618840;54;20030;-65
2022/05/29 16:20:24;;;;;;;1.48;1.10;;;;;;;19.01;24.17;98340.75;2619013;54;20038;-64
2022/05/29 16:23:01;;;;;;;2.42;1.27;;;;;;;19.29;24.64;98329.66;2618864;54;20047;-64
2022/05/29 16:25:33;;;;;;;1.60;1.20;;;;;;;19.54;24.32;98328.16;2618680;54;20038;-64
2022/05/29 16:28:11;;;;;;;1.23;1.13;;;;;;;19.82;23.85;98328.84;2618532;54;20138;-65
2022/05/29 16:30:54;;;;;;;1.95;1.40;;;;;;;19.94;22.90;98322.16;2618885;54;20058;-66
2022/05/29 16:33:38;;;;;;;1.63;1.13;;;;;;;20.10;22.71;98320.31;2619039;54;20066;-64
2022/05/29 16:36:22;;;;;;;1.50;1.20;;;;;;;20.50;22.21;98318.78;2618722;54;20125;-65
2022/05/29 16:50:26;;;;;;;1.75;1.05;;;;;;;20.57;22.48;98316.59;2618710;54;20038;-65
2022/05/29 16:53:05;;;;;;;2.17;1.30;;;;;;;20.34;23.13;98314.44;2618819;54;20030;-64
2022/05/29 16:55:39;;;;;;;3.22;1.48;;;;;;;19.97;23.47;98312.78;2618527;54;20038;-64
2022/05/29 16:58:13;;;;;;;6.80;4.97;;;;;;;20.42;23.71;98312.03;2618191;54;20085;-65
2022/05/29 17:00:56;;;;;;;2.67;1.77;;;;;;;20.53;23.50;98318.22;2618618;54;20530;-65
2022/05/29 17:03:48;;;;;;;1.23;1.10;;;;;;;19.91;24.37;98317.31;2618789;54;20038;-66
2022/05/29 17:06:25;;;;;;;2.30;1.42;;;;;;;19.31;24.63;98321.38;2618483;54;20070;-63
2022/05/29 17:09:00;;;;;;;2.25;1.42;;;;;;;18.71;25.86;98319.94;2617597;54;20082;-65
2022/05/29 17:11:30;;;;;;;1.73;1.23;;;;;;;18.61;26.09;98339.38;2618393;54;20150;-67
2022/05/29 17:14:00;;;;;;;2.95;2.67;;;;;;;19.29;25.95;98321.63;2619125;39;20432;-65
2022/05/29 17:16:30;;;;;;;2.42;1.50;;;;;;;19.75;25.81;98318.34;2619544;39;20432;-65
2022/05/29 17:19:03;;;;;;;2.50;1.95;;;;;;;20.17;25.69;98320.06;2618460;54;20026;-65
2022/05/29 17:21:39;;;;;;;5.00;1.50;;;;;;;20.11;26.97;98324.59;2618903;54;20557;-65
2022/05/29 17:24:16;;;;;;;3.47;1.35;;;;;;;19.58;27.68;98321.22;2619106;54;20026;-65
2022/05/29 17:26:55;;;;;;;1.67;1.40;;;;;;;18.75;28.57;98326.41;2618412;47;20073;-65
2022/05/29 17:29:34;;;;;;;1.33;1.10;;;;;;;18.24;30.06;98337.44;2618573;54;20046;-67
2022/05/29 17:32:09;;;;;;;2.10;1.30;;;;;;;17.93;30.55;98339.03;2618924;54;20038;-64
2022/05/29 17:34:48;;;;;;;1.40;1.30;;;;;;;17.52;31.17;98338.53;2619050;54;20030;-65
2022/05/29 17:37:25;;;;;;;2.03;1.50;;;;;;;17.68;31.15;98342.19;2618627;54;20101;-65
2022/05/29 17:40:02;;;;;;;1.42;1.33;;;;;;;18.73;30.61;98332.00;2619479;31;20514;-65
2022/05/29 17:42:32;;;;;;;1.65;1.40;;;;;;;19.69;29.66;98328.25;2622433;54;20041;-66
2022/05/29 17:45:03;;;;;;;3.63;1.85;;;;;;;20.52;28.47;98324.66;2622040;54;20065;-65
2022/05/29 17:47:42;;;;;;;1.30;1.10;;;;;;;20.81;27.87;98316.06;2621660;54;20038;-65
2022/05/29 17:50:27;;;;;;;1.30;1.20;;;;;;;20.71;28.00;98330.31;2620123;54;20042;-64
2022/05/29 17:53:07;;;;;;;1.73;1.35;;;;;;;21.40;26.66;98320.78;2618195;54;20031;-65
2022/05/29 17:55:41;;;;;;;2.17;1.95;;;;;;;21.73;26.55;98320.09;2619211;54;20034;-65
2022/05/29 17:58:12;;;;;;;3.00;1.42;;;;;;;21.88;25.62;98315.69;2618660;54;20174;-66